Time;durP1;ratioP1;P1;durP2;ratioP2;P2;SDS_P1;SDS_P2;PMS_P1;PMS_P2;Temp;Humidity;BMP_temperature;BMP_pressure;BME280_temperature;BME280_humidity;BME280_pressure;Samples;Min_cycle;Max_cycle;Signal;HPM_P1;HPM_P2
2022/03/02 00:00:38;;;;;;;14.02;9.40;;;-0.70;73.40;;;-2.19;61.69;98129.34;4992896;28;20757;-76
2022/03/02 00:03:04;;;;;;;17.15;9.63;;;-0.70;73.40;;;-2.17;61.49;98132.56;4974895;28;20508;-77
2022/03/02 00:05:30;;;;;;;18.02;10.60;;;-0.70;73.40;;;-2.08;61.63;98138.63;4992875;28;20417;-77
2022/03/02 00:07:56;;;;;;;19.02;10.77;;;-0.60;73.50;;;-2.10;61.72;98137.97;4992591;28;20407;-76
2022/03/02 00:10:23;;;;;;;21.00;11.02;;;-0.60;73.40;;;-2.10;61.37;98132.78;4992742;28;20422;-76
2022/03/02 00:12:51;;;;;;;19.30;11.63;;;-0.60;73.50;;;-2.00;61.53;98138.69;4992217;28;20414;-76
2022/03/02 00:15:17;;;;;;;19.73;10.98;;;-0.60;73.50;;;-2.02;61.44;98117.25;4992832;28;20414;-76
2022/03/02 00:17:43;;;;;;;18.77;10.37;;;-0.60;73.50;;;-1.98;61.15;98111.63;4992531;28;20445;-76
2022/03/02 00:20:10;;;;;;;18.13;10.50;;;-0.60;73.40;;;-1.94;61.40;98104.34;4986478;28;20484;-76
2022/03/02 00:22:37;;;;;;;17.40;10.63;;;-0.50;73.50;;;-1.83;61.40;98109.28;4990012;28;20402;-75
2022/03/02 00:25:03;;;;;;;17.13;10.27;;;-0.40;73.50;;;-1.80;60.94;98114.13;4992602;28;20530;-76
2022/03/02 00:27:29;;;;;;;16.02;9.40;;;-0.40;73.30;;;-1.75;60.90;98108.50;4992156;28;20460;-76
2022/03/02 00:29:56;;;;;;;15.77;9.13;;;-0.30;73.20;;;-1.69;60.58;98105.28;4992081;28;20418;-76
2022/03/02 00:32:22;;;;;;;16.20;9.80;;;-0.30;73.10;;;-1.57;60.75;98102.22;5025017;22;20511;-73
2022/03/02 00:34:48;;;;;;;13.57;8.98;;;-0.20;73.00;;;-1.51;60.92;98106.00;5011967;28;20500;-75
2022/03/02 00:37:14;;;;;;;15.77;9.82;;;-0.10;72.70;;;-1.42;61.18;98107.63;5011885;28;20495;-76
2022/03/02 00:39:41;;;;;;;14.70;9.10;;;0.00;72.70;;;-1.41;60.46;98111.84;5011662;28;20397;-76
2022/03/02 00:42:07;;;;;;;17.33;10.05;;;0.00;72.30;;;-1.28;60.53;98116.63;5011111;28;20511;-74
2022/03/02 00:44:34;;;;;;;14.40;9.15;;;0.10;72.40;;;-1.28;60.68;98108.84;5008897;28;21019;-74
2022/03/02 00:47:04;;;;;;;17.83;9.45;;;0.10;72.10;;;-1.28;60.17;98114.81;5010054;28;20944;-74
2022/03/02 00:49:32;;;;;;;15.50;8.80;;;0.10;72.00;;;-1.26;60.16;98106.88;5011339;28;20387;-74
2022/03/02 00:51:59;;;;;;;18.75;10.40;;;0.20;72.10;;;-1.16;60.45;98112.75;5010770;28;20426;-74
2022/03/02 00:54:25;;;;;;;19.92;10.85;;;0.20;72.10;;;-1.14;60.15;98103.03;5011428;28;20433;-74
2022/03/02 00:56:50;;;;;;;18.50;11.47;;;0.30;71.90;;;-1.13;59.83;98101.25;5011225;28;20405;-75
2022/03/02 00:59:17;;;;;;;17.27;10.02;;;0.20;71.80;;;-1.16;60.34;98097.16;5011434;28;20764;-74
2022/03/02 01:01:43;;;;;;;19.02;10.52;;;0.20;71.80;;;-1.17;60.50;98095.53;5010780;28;20454;-75
2022/03/02 01:04:10;;;;;;;16.52;10.05;;;0.30;72.10;;;-1.17;60.25;98085.97;5011395;28;20492;-74
2022/03/02 01:06:36;;;;;;;16.75;9.95;;;0.20;72.00;;;-1.23;60.08;98083.19;5008952;28;20459;-75
2022/03/02 01:09:04;;;;;;;14.95;9.32;;;0.20;71.90;;;-1.27;60.56;98095.66;5008987;28;20807;-75
2022/03/02 01:11:30;;;;;;;19.63;10.90;;;0.10;72.10;;;-1.27;60.69;98090.47;5011015;28;20479;-74
2022/03/02 01:13:56;;;;;;;19.67;11.50;;;0.20;72.70;;;-1.30;61.38;98092.59;5010630;28;20447;-74
2022/03/02 01:16:22;;;;;;;20.00;11.10;;;0.10;73.10;;;-1.34;60.89;98092.09;5011118;28;20753;-75
2022/03/02 01:18:48;;;;;;;18.73;11.45;;;0.00;73.10;;;-1.33;61.66;98091.13;5010836;28;20415;-74
2022/03/02 01:21:15;;;;;;;21.73;12.03;;;0.00;73.40;;;-1.37;61.87;98089.00;5010711;28;20428;-75
2022/03/02 01:23:41;;;;;;;22.07;10.93;;;0.00;73.90;;;-1.46;61.88;98082.97;5010634;28;20412;-74
2022/03/02 01:26:07;;;;;;;19.55;11.90;;;0.00;73.80;;;-1.45;62.25;98082.00;5010551;28;20451;-75
2022/03/02 01:28:34;;;;;;;23.17;12.23;;;-0.10;74.00;;;-1.41;62.36;98085.91;5010750;28;20397;-75
2022/03/02 01:31:00;;;;;;;20.40;12.35;;;-0.10;74.10;;;-1.44;62.09;98088.00;5010815;28;20420;-75
2022/03/02 01:33:26;;;;;;;20.15;12.15;;;-0.10;74.00;;;-1.51;61.83;98076.63;4992736;28;20417;-75
2022/03/02 01:35:52;;;;;;;20.02;11.93;;;-0.10;74.30;;;-1.48;62.61;98074.53;5010742;28;20404;-75
2022/03/02 01:38:20;;;;;;;21.10;11.27;;;-0.10;74.60;;;-1.56;62.42;98079.69;5010691;28;20459;-75
2022/03/02 01:40:46;;;;;;;21.92;11.93;;;-0.20;74.50;;;-1.51;62.56;98069.66;5010667;28;21001;-76
2022/03/02 01:43:13;;;;;;;20.42;11.55;;;-0.20;74.70;;;-1.56;62.37;98069.31;5010165;28;20454;-75
2022/03/02 01:45:39;;;;;;;24.57;12.50;;;-0.20;74.60;;;-1.51;62.46;98063.66;5012091;28;20419;-75
2022/03/02 01:48:05;;;;;;;19.73;11.60;;;-0.20;75.00;;;-1.61;63.02;98067.19;4993476;28;20910;-74
2022/03/02 01:50:32;;;;;;;17.98;10.73;;;-0.30;74.90;;;-1.68;62.71;98053.22;5010458;28;20810;-75
2022/03/02 01:52:58;;;;;;;16.35;10.38;;;-0.30;74.70;;;-1.77;62.64;98056.75;5010042;28;20402;-74
2022/03/02 01:55:26;;;;;;;16.80;9.70;;;-0.30;74.60;;;-1.85;62.85;98046.34;5009976;28;20926;-75
2022/03/02 01:57:52;;;;;;;17.53;10.30;;;-0.40;74.70;;;-1.85;62.63;98054.13;5009171;28;20487;-75
2022/03/02 02:00:21;;;;;;;16.13;9.80;;;-0.40;74.90;;;-1.87;62.96;98050.88;5010338;28;20480;-74
2022/03/02 02:02:49;;;;;;;21.10;11.40;;;-0.40;74.90;;;-1.81;62.99;98044.25;5009844;28;20459;-74
2022/03/02 02:05:15;;;;;;;20.58;12.55;;;-0.40;75.20;;;-1.75;62.67;98034.06;5010255;28;20405;-75
2022/03/02 02:07:42;;;;;;;20.30;11.70;;;-0.40;75.20;;;-1.81;62.73;98032.09;5010065;28;20476;-75
2022/03/02 02:10:09;;;;;;;23.83;13.20;;;-0.40;75.00;;;-1.81;62.96;98018.31;5010221;28;21009;-74
2022/03/02 02:12:37;;;;;;;18.55;11.13;;;-0.50;75.40;;;-1.96;63.08;98025.88;5009870;28;20447;-74
2022/03/02 02:15:05;;;;;;;17.48;10.48;;;-0.50;75.30;;;-2.03;63.18;98017.88;5010277;28;20843;-75
2022/03/02 02:17:31;;;;;;;20.60;11.52;;;-0.60;75.30;;;-2.03;62.97;98022.28;5009775;28;20806;-74
2022/03/02 02:19:57;;;;;;;22.00;12.45;;;-0.60;75.00;;;-2.04;63.32;98018.88;5010012;28;20478;-75
2022/03/02 02:22:24;;;;;;;20.53;11.77;;;-0.70;75.70;;;-2.04;63.36;98018.88;5009668;28;20413;-75
2022/03/02 02:24:50;;;;;;;22.50;12.52;;;-0.70;75.70;;;-2.09;63.04;98015.91;5010129;28;20906;-75
2022/03/02 02:27:17;;;;;;;19.15;11.63;;;-0.70;75.90;;;-2.15;63.59;98011.34;5009879;28;20441;-75
2022/03/02 02:29:47;;;;;;;18.73;10.95;;;-0.80;75.90;;;-2.23;63.21;98007.91;5010128;28;20466;-75
2022/03/02 02:32:13;;;;;;;20.15;12.27;;;-0.80;75.90;;;-2.22;63.80;97999.16;5009453;28;20433;-74
2022/03/02 02:34:40;;;;;;;24.63;11.75;;;-0.90;76.50;;;-2.21;63.96;97987.84;5010178;28;20514;-75
2022/03/02 02:37:07;;;;;;;19.88;10.38;;;-0.90;76.50;;;-2.38;63.42;97984.34;5009724;28;20496;-75
2022/03/02 02:39:37;;;;;;;19.63;10.60;;;-0.90;76.20;;;-2.45;63.75;97973.78;5010029;28;20429;-74
2022/03/02 02:42:06;;;;;;;16.65;9.52;;;-0.90;76.20;;;-2.51;63.58;97977.00;5009486;28;20413;-75
2022/03/02 02:44:32;;;;;;;17.88;10.07;;;-1.00;76.10;;;-2.56;64.06;97978.44;5009511;28;20882;-75
2022/03/02 02:46:59;;;;;;;17.80;10.00;;;-1.00;76.30;;;-2.62;63.80;97973.84;5001528;28;20401;-74
2022/03/02 02:49:26;;;;;;;18.63;11.05;;;-1.10;76.30;;;-2.60;63.98;97983.09;4992219;28;20499;-75
2022/03/02 02:51:55;;;;;;;20.33;11.13;;;-1.10;76.60;;;-2.63;64.07;97988.59;5009341;28;20408;-75
2022/03/02 02:54:21;;;;;;;19.77;10.50;;;-1.10;76.90;;;-2.70;64.05;97986.75;5009854;28;20476;-73
2022/03/02 02:56:49;;;;;;;19.42;10.57;;;-1.20;77.60;;;-2.70;64.35;97992.75;5009616;28;20450;-73
2022/03/02 02:59:15;;;;;;;19.23;12.27;;;-1.20;77.00;;;-2.63;64.40;98000.75;5009898;28;20886;-75
2022/03/02 03:01:41;;;;;;;24.67;13.05;;;-1.20;77.30;;;-2.58;65.26;98001.91;5009412;28;20407;-73
2022/03/02 03:04:06;;;;;;;20.63;11.50;;;-1.20;77.70;;;-2.82;64.52;97987.03;5009760;28;20411;-76
2022/03/02 03:06:33;;;;;;;17.30;10.85;;;-1.30;77.30;;;-2.83;65.26;97987.97;4988408;28;20420;-76
2022/03/02 03:08:59;;;;;;;21.52;12.38;;;-1.30;77.50;;;-2.69;65.20;97986.59;4990357;28;20773;-73
2022/03/02 03:11:24;;;;;;;19.42;11.52;;;-1.30;77.90;;;-2.81;64.87;97987.84;4992765;28;20422;-75
2022/03/02 03:13:52;;;;;;;15.65;9.55;;;-1.30;77.80;;;-2.95;64.88;97990.97;4993346;28;20402;-74
2022/03/02 03:16:18;;;;;;;18.83;10.48;;;-1.40;78.30;;;-3.00;65.22;97990.59;4993529;28;20406;-75
2022/03/02 03:18:44;;;;;;;22.83;11.93;;;-1.50;77.80;;;-2.85;65.29;97996.88;4992567;28;20421;-75
2022/03/02 03:21:10;;;;;;;19.60;11.82;;;-1.40;78.30;;;-2.80;65.57;97998.06;4998376;28;20402;-75
2022/03/02 03:23:36;;;;;;;23.27;11.80;;;-1.40;78.50;;;-2.89;65.41;97993.78;4993296;28;20902;-75
2022/03/02 03:26:02;;;;;;;19.08;11.02;;;-1.40;78.40;;;-3.01;65.74;97995.00;4993390;28;20403;-75
2022/03/02 03:28:28;;;;;;;17.00;10.50;;;-1.50;78.30;;;-2.99;65.40;97992.22;5000953;28;20736;-75
2022/03/02 03:30:55;;;;;;;19.23;11.02;;;-1.50;78.40;;;-3.00;65.57;97982.84;5011265;28;20422;-74
2022/03/02 03:33:21;;;;;;;21.95;11.68;;;-1.50;78.50;;;-2.96;65.58;97982.41;5012316;28;20412;-73
2022/03/02 03:35:47;;;;;;;18.45;11.55;;;-1.50;78.80;;;-3.01;65.66;97976.06;5012862;28;20500;-76
2022/03/02 03:38:13;;;;;;;15.40;10.02;;;-1.50;78.90;;;-3.15;65.83;97977.38;5012504;28;20408;-73
2022/03/02 03:40:39;;;;;;;21.60;12.38;;;-1.60;78.50;;;-3.04;66.00;97976.34;5012856;28;20424;-76
2022/03/02 03:43:05;;;;;;;24.10;12.60;;;-1.70;79.30;;;-2.99;66.48;97976.69;5012314;28;20925;-75
2022/03/02 03:45:31;;;;;;;19.37;11.50;;;-1.60;79.60;;;-2.98;66.51;97976.56;5012803;28;20430;-75
2022/03/02 03:47:58;;;;;;;20.33;11.40;;;-1.60;79.50;;;-3.13;66.44;97981.47;5012835;28;20416;-75
2022/03/02 03:50:25;;;;;;;17.80;11.20;;;-1.70;79.10;;;-3.18;66.51;97981.09;5012624;28;20519;-75
2022/03/02 03:52:51;;;;;;;17.65;10.75;;;-1.70;79.30;;;-3.21;66.60;97980.56;5012206;28;20405;-75
2022/03/02 03:55:17;;;;;;;19.48;11.20;;;-1.70;79.30;;;-3.23;66.36;97982.50;5012644;28;20455;-75
2022/03/02 03:57:43;;;;;;;23.02;12.27;;;-1.70;79.40;;;-3.10;66.24;97977.78;4994600;28;20420;-76
2022/03/02 04:00:13;;;;;;;18.63;11.13;;;-1.70;79.60;;;-3.17;66.56;97974.97;5012586;28;20405;-75
2022/03/02 04:02:39;;;;;;;21.75;11.57;;;-1.70;79.70;;;-3.19;66.44;97976.88;4994414;28;20409;-75
2022/03/02 04:05:08;;;;;;;16.75;10.80;;;-1.70;79.70;;;-3.27;66.56;97974.22;5012539;28;20898;-75
2022/03/02 04:07:34;;;;;;;17.80;10.32;;;-1.70;79.70;;;-3.35;66.84;97973.34;5011977;28;20409;-74
2022/03/02 04:10:01;;;;;;;17.00;9.77;;;-1.80;79.60;;;-3.42;66.50;97978.31;4994805;28;20503;-75
2022/03/02 04:12:27;;;;;;;18.77;10.35;;;-1.90;79.50;;;-3.39;66.64;97970.25;5011702;28;20411;-74
2022/03/02 04:14:53;;;;;;;19.25;10.32;;;-1.90;79.70;;;-3.38;66.88;97966.69;5012299;28;20409;-74
2022/03/02 04:17:19;;;;;;;17.98;11.05;;;-1.90;79.70;;;-3.42;67.03;97960.19;5011862;28;20483;-73
2022/03/02 04:19:45;;;;;;;16.80;9.80;;;-1.90;79.80;;;-3.52;66.52;97956.88;5011568;28;20448;-74
2022/03/02 04:22:12;;;;;;;17.23;10.20;;;-2.00;79.70;;;-3.53;66.72;97963.00;5011085;28;20432;-74
2022/03/02 04:24:38;;;;;;;19.60;11.30;;;-2.00;79.90;;;-3.41;66.86;97963.59;5011934;28;20467;-75
2022/03/02 04:27:05;;;;;;;21.75;12.00;;;-1.90;80.20;;;-3.40;66.94;97960.88;5011768;28;20526;-75
2022/03/02 04:29:32;;;;;;;21.60;11.18;;;-1.90;80.20;;;-3.46;67.03;97955.47;4994358;28;20820;-75
2022/03/02 04:31:58;;;;;;;21.58;12.32;;;-1.90;80.20;;;-3.42;66.93;97951.63;4993391;28;20775;-75
2022/03/02 04:34:24;;;;;;;18.35;11.32;;;-1.90;80.40;;;-3.43;67.04;97952.56;5012160;28;20409;-75
2022/03/02 04:36:50;;;;;;;21.55;11.88;;;-1.90;80.40;;;-3.42;67.26;97941.25;5011673;28;20401;-74
2022/03/02 04:39:17;;;;;;;19.92;11.70;;;-1.90;80.60;;;-3.44;67.32;97936.22;5011981;28;20412;-75
2022/03/02 04:41:43;;;;;;;17.70;10.80;;;-1.90;80.90;;;-3.53;67.31;97935.34;5011099;28;20900;-75
2022/03/02 04:44:09;;;;;;;19.75;11.68;;;-2.00;80.70;;;-3.51;67.37;97928.25;5011937;28;20488;-75
2022/03/02 04:46:35;;;;;;;16.42;10.45;;;-2.00;80.90;;;-3.62;67.60;97923.31;4993761;28;20885;-75
2022/03/02 04:49:10;;;;;;;20.40;11.30;;;-2.10;80.60;;;-3.57;67.52;97923.69;5011911;28;20409;-74
2022/03/02 04:51:37;;;;;;;17.43;10.47;;;-2.10;80.80;;;-3.65;67.77;97918.44;5011251;28;20460;-75
2022/03/02 04:54:04;;;;;;;18.80;10.52;;;-2.10;80.90;;;-3.70;68.07;97918.09;5011450;28;20440;-75
2022/03/02 04:56:31;;;;;;;21.73;12.30;;;-2.10;81.00;;;-3.58;68.32;97916.06;5013669;28;20412;-75
2022/03/02 04:58:57;;;;;;;20.33;12.02;;;-2.10;81.40;;;-3.48;68.19;97923.75;5011660;28;20463;-76
2022/03/02 05:01:23;;;;;;;21.02;11.80;;;-2.00;81.70;;;-3.51;68.00;97917.09;5011755;28;20404;-75
2022/03/02 05:03:49;;;;;;;21.70;11.88;;;-2.00;81.60;;;-3.48;67.95;97909.03;5010904;28;20409;-75
2022/03/02 05:06:15;;;;;;;21.63;12.00;;;-2.00;81.60;;;-3.43;68.09;97921.53;5011103;28;20407;-75
2022/03/02 05:08:41;;;;;;;19.00;10.88;;;-2.10;81.80;;;-3.61;68.12;97916.38;5005188;28;20766;-75
2022/03/02 05:11:07;;;;;;;23.70;13.17;;;-2.10;81.70;;;-3.52;68.36;97911.09;5010988;28;20867;-73
2022/03/02 05:13:36;;;;;;;20.25;10.77;;;-2.10;81.80;;;-3.65;67.97;97913.25;5010606;28;20417;-75
2022/03/02 05:16:02;;;;;;;20.73;12.30;;;-2.10;81.80;;;-3.56;68.24;97914.97;4991478;28;20409;-74
2022/03/02 05:18:28;;;;;;;21.38;11.98;;;-2.10;82.10;;;-3.63;68.14;97911.34;5007159;28;20404;-75
2022/03/02 05:20:54;;;;;;;18.08;10.60;;;-2.10;82.00;;;-3.65;68.37;97910.69;5010921;28;20415;-75
2022/03/02 05:23:20;;;;;;;21.93;11.87;;;-2.20;82.00;;;-3.56;68.80;97920.13;5010538;28;20435;-75
2022/03/02 05:25:46;;;;;;;21.80;11.32;;;-2.10;82.40;;;-3.65;68.42;97910.69;5011018;28;20913;-75
2022/03/02 05:28:12;;;;;;;18.45;10.90;;;-2.20;82.30;;;-3.64;68.85;97917.47;5010630;28;20408;-75
2022/03/02 05:30:39;;;;;;;21.20;12.55;;;-2.20;82.30;;;-3.54;68.62;97920.81;5010455;28;20424;-74
2022/03/02 05:33:05;;;;;;;25.20;12.80;;;-2.10;82.30;;;-3.47;68.42;97922.78;5010053;28;20771;-75
2022/03/02 05:35:31;;;;;;;23.30;12.18;;;-2.10;82.40;;;-3.49;68.45;97912.59;5010988;28;20400;-75
2022/03/02 05:37:57;;;;;;;27.13;12.30;;;-2.00;82.50;;;-3.40;68.35;97908.28;5010550;28;20401;-76
2022/03/02 05:40:23;;;;;;;19.45;10.52;;;-2.00;82.40;;;-3.44;68.75;97912.94;5010793;28;20396;-75
2022/03/02 05:42:49;;;;;;;17.80;10.60;;;-2.00;82.20;;;-3.34;68.02;97911.09;5010240;28;20405;-75
2022/03/02 05:45:15;;;;;;;19.38;11.07;;;-1.90;82.00;;;-3.25;67.98;97909.38;5010453;28;20404;-74
2022/03/02 05:47:43;;;;;;;17.98;10.63;;;-1.80;81.70;;;-3.27;68.14;97906.13;5010471;28;20451;-75
2022/03/02 05:50:10;;;;;;;21.42;11.73;;;-1.80;81.70;;;-3.18;67.93;97897.44;5010788;28;20423;-74
2022/03/02 05:52:36;;;;;;;20.95;12.02;;;-1.80;81.60;;;-3.09;67.70;97899.13;5010275;28;20922;-75
2022/03/02 05:55:03;;;;;;;21.83;11.45;;;-1.70;81.40;;;-3.02;67.48;97905.31;5006149;28;20413;-74
2022/03/02 05:57:29;;;;;;;19.92;11.50;;;-1.60;81.40;;;-3.02;67.32;97904.50;5006491;28;20405;-75
2022/03/02 05:59:55;;;;;;;16.23;10.40;;;-1.60;81.20;;;-2.99;66.99;97899.81;5016304;28;20803;-74
2022/03/02 06:02:21;;;;;;;21.10;11.00;;;-1.50;81.00;;;-2.90;66.99;97901.50;5017052;28;20405;-74
2022/03/02 06:04:48;;;;;;;21.08;12.70;;;-1.50;80.90;;;-2.82;66.85;97905.91;5011710;28;20502;-75
2022/03/02 06:07:14;;;;;;;18.63;11.93;;;-1.40;80.60;;;-2.77;67.02;97901.06;5009999;28;20436;-74
2022/03/02 06:09:42;;;;;;;17.30;10.85;;;-1.40;80.80;;;-2.81;66.96;97907.53;5010482;28;20755;-74
2022/03/02 06:12:09;;;;;;;18.47;10.70;;;-1.40;80.60;;;-2.71;67.20;97907.44;5009686;28;20431;-74
2022/03/02 06:14:36;;;;;;;20.92;10.93;;;-1.30;80.60;;;-2.67;67.06;97904.34;5010139;28;20432;-75
2022/03/02 06:17:03;;;;;;;16.40;10.15;;;-1.30;80.50;;;-2.65;66.94;97897.25;5009774;28;20405;-75
2022/03/02 06:19:30;;;;;;;21.20;11.40;;;-1.20;80.40;;;-2.57;66.67;97896.47;5010046;28;20408;-74
2022/03/02 06:21:58;;;;;;;19.67;11.95;;;-1.20;80.30;;;-2.52;66.68;97899.41;4991986;28;20409;-75
2022/03/02 06:24:25;;;;;;;18.15;10.98;;;-1.10;80.40;;;-2.48;66.62;97892.97;5010293;28;20412;-75
2022/03/02 06:26:51;;;;;;;18.30;10.93;;;-1.10;80.40;;;-2.43;66.62;97888.09;5009859;28;20512;-73
2022/03/02 06:29:17;;;;;;;21.80;11.65;;;-1.10;80.30;;;-2.33;66.62;97887.97;5010174;28;20415;-73
2022/03/02 06:31:43;;;;;;;21.10;11.82;;;-1.00;80.20;;;-2.28;66.32;97881.34;5032495;22;20496;-76
2022/03/02 06:34:09;;;;;;;18.80;11.55;;;-0.90;81.00;;;-2.22;66.87;97885.91;5030091;28;20765;-76
2022/03/02 06:36:34;;;;;;;19.97;10.77;;;-0.80;80.10;;;-2.15;66.16;97899.84;5028928;28;20739;-76
2022/03/02 06:39:04;;;;;;;16.40;9.85;;;-0.80;80.00;;;-2.08;66.23;97897.44;5029640;28;20413;-78
2022/03/02 06:41:51;;;;;;;18.83;10.68;;;-0.70;79.90;;;-2.00;66.02;97903.44;5029420;28;20399;-73
2022/03/02 06:44:26;;;;;;;21.08;11.85;;;-0.70;79.70;;;-1.92;66.25;97894.88;5024904;28;20421;-79
2022/03/02 06:47:00;;;;;;;19.92;11.38;;;-0.60;79.80;;;-1.87;65.55;97902.16;5033092;28;20422;-75
2022/03/02 06:49:33;;;;;;;15.43;9.98;;;-0.50;79.60;;;-1.80;65.90;97910.94;5015889;28;20418;-74
2022/03/02 06:52:02;;;;;;;16.20;9.23;;;-0.40;79.40;;;-1.71;65.65;97904.78;5032659;28;20418;-74
2022/03/02 06:54:31;;;;;;;14.00;8.73;;;-0.40;79.30;;;-1.61;65.59;97898.47;5033444;28;20402;-73
2022/03/02 06:57:00;;;;;;;14.75;8.65;;;-0.30;79.10;;;-1.49;65.03;97917.13;5015250;28;20497;-73
2022/03/02 06:59:30;;;;;;;15.48;8.55;;;-0.20;78.80;;;-1.39;64.78;97914.38;5032498;28;20431;-75
2022/03/02 07:02:02;;;;;;;17.80;9.95;;;-0.10;78.60;;;-1.32;64.53;97905.78;5032604;28;20403;-75
2022/03/02 07:04:37;;;;;;;15.85;9.85;;;0.00;78.40;;;-1.26;64.68;97901.69;5033452;28;20441;-75
2022/03/02 07:07:03;;;;;;;13.80;8.77;;;0.00;78.10;;;-1.19;64.31;97911.28;5031184;28;20410;-75
2022/03/02 07:09:33;;;;;;;15.32;9.25;;;0.10;78.00;;;-1.11;64.25;97912.22;5031632;28;20481;-74
2022/03/02 07:12:00;;;;;;;12.95;7.78;;;0.20;77.80;;;-1.02;64.12;97919.03;5024417;28;20419;-75
2022/03/02 07:14:28;;;;;;;18.33;9.13;;;0.20;77.50;;;-0.95;63.89;97913.03;5032976;28;20410;-75
2022/03/02 07:16:57;;;;;;;17.00;9.73;;;0.30;77.30;;;-0.88;63.26;97911.38;5032832;28;20473;-75
2022/03/02 07:19:23;;;;;;;15.65;9.60;;;0.40;76.90;;;-0.82;63.32;97918.50;5033156;28;20486;-75
2022/03/02 07:21:51;;;;;;;15.80;8.90;;;0.50;76.60;;;-0.74;62.96;97922.88;5032437;28;20399;-73
2022/03/02 07:24:19;;;;;;;14.20;8.57;;;0.50;76.50;;;-0.67;62.86;97910.03;5032889;28;20730;-73
2022/03/02 07:26:52;;;;;;;20.35;10.23;;;0.60;76.30;;;-0.62;62.30;97913.78;5032326;28;20507;-73
2022/03/02 07:29:21;;;;;;;16.67;9.02;;;0.60;75.90;;;-0.53;62.67;97915.38;5015095;28;20411;-74
2022/03/02 07:31:48;;;;;;;12.68;8.20;;;0.70;75.90;;;-0.46;62.49;97918.09;5028444;28;20824;-74
2022/03/02 07:34:15;;;;;;;13.18;8.30;;;0.80;75.70;;;-0.38;62.21;97917.25;5024837;28;20407;-73
2022/03/02 07:36:42;;;;;;;13.43;8.00;;;0.90;75.60;;;-0.31;62.29;97910.41;5025728;28;20806;-73
2022/03/02 07:39:09;;;;;;;12.60;7.78;;;0.90;75.40;;;-0.24;62.22;97914.75;5015464;28;20483;-76
2022/03/02 07:41:35;;;;;;;14.30;8.23;;;1.00;75.40;;;-0.16;62.08;97911.31;5024682;28;20413;-75
2022/03/02 07:44:03;;;;;;;11.75;7.75;;;1.10;75.30;;;-0.07;61.71;97915.47;5026261;28;20489;-74
2022/03/02 07:46:30;;;;;;;14.77;8.20;;;1.20;75.20;;;0.02;61.89;97911.03;5020317;28;20422;-77
2022/03/02 07:48:56;;;;;;;13.45;8.32;;;1.30;75.00;;;0.12;61.50;97907.25;5024209;28;20405;-77
2022/03/02 07:51:23;;;;;;;13.70;8.38;;;1.30;74.80;;;0.24;61.34;97907.63;5020567;28;20430;-75
2022/03/02 07:53:51;;;;;;;14.05;8.50;;;1.40;74.60;;;0.34;61.48;97922.06;5023958;28;20863;-77
2022/03/02 07:56:20;;;;;;;14.18;8.90;;;1.60;74.40;;;0.46;60.92;97917.25;5020852;28;20456;-74
2022/03/02 07:58:46;;;;;;;13.80;8.10;;;1.70;74.10;;;0.59;60.51;97911.47;5001202;28;20431;-73
2022/03/02 08:01:17;;;;;;;13.10;7.95;;;1.80;73.70;;;0.69;60.81;97905.03;5018683;28;20393;-73
2022/03/02 08:03:44;;;;;;;13.55;8.55;;;1.90;73.40;;;0.81;60.25;97904.63;5020858;28;20463;-73
2022/03/02 08:06:12;;;;;;;13.73;8.40;;;2.00;73.10;;;0.93;60.18;97901.41;5019908;28;20457;-76
2022/03/02 08:08:40;;;;;;;15.13;8.33;;;2.10;72.90;;;1.06;59.65;97906.00;5010641;28;20774;-75
2022/03/02 08:11:06;;;;;;;14.32;8.75;;;2.20;72.60;;;1.23;59.70;97915.28;5025742;28;20513;-76
2022/03/02 08:13:36;;;;;;;16.35;9.57;;;2.40;72.40;;;1.38;58.75;97913.47;5023857;28;20416;-74
2022/03/02 08:16:02;;;;;;;18.58;10.32;;;2.60;71.60;;;1.54;58.56;97918.53;5026985;28;20407;-72
2022/03/02 08:18:29;;;;;;;20.40;11.10;;;2.70;71.20;;;1.67;58.30;97920.47;5031916;28;20406;-73
2022/03/02 08:21:00;;;;;;;23.17;12.95;;;2.80;70.80;;;1.73;56.85;97908.53;5027426;28;20501;-75
2022/03/02 08:23:35;;;;;;;17.48;10.18;;;2.90;69.40;;;1.84;57.50;97923.72;5031441;28;20408;-75
2022/03/02 08:26:02;;;;;;;19.70;10.73;;;3.00;69.60;;;1.89;57.04;97929.19;5031414;28;20757;-75
2022/03/02 08:28:31;;;;;;;15.80;9.50;;;3.00;69.30;;;1.93;56.85;97922.63;5032088;28;20433;-75
2022/03/02 08:30:57;;;;;;;17.98;10.45;;;3.10;69.10;;;1.99;56.85;97921.88;5031519;28;20418;-75
2022/03/02 08:33:29;;;;;;;14.35;9.20;;;3.10;68.80;;;2.04;56.84;97914.28;5026437;28;20422;-73
2022/03/02 08:35:58;;;;;;;18.42;10.80;;;3.20;68.70;;;2.12;55.71;97916.00;5025247;28;20411;-74
2022/03/02 08:38:25;;;;;;;18.05;10.60;;;3.20;67.70;;;2.25;55.77;97914.34;5031455;28;20410;-71
2022/03/02 08:40:52;;;;;;;18.05;9.73;;;3.30;67.60;;;2.38;55.95;97905.84;5029430;28;20506;-73
2022/03/02 08:43:18;;;;;;;17.23;9.23;;;3.50;67.70;;;2.53;55.14;97906.59;5026947;28;20419;-78
2022/03/02 08:45:46;;;;;;;17.30;10.40;;;3.60;67.40;;;2.71;55.51;97898.28;5025711;28;20413;-76
2022/03/02 08:48:14;;;;;;;18.08;9.68;;;3.80;67.20;;;2.87;55.49;97899.81;5022809;28;20415;-78
2022/03/02 08:50:42;;;;;;;17.95;10.25;;;3.90;66.80;;;3.02;55.01;97903.16;5019931;28;20420;-81
2022/03/02 08:53:14;;;;;;;15.87;9.53;;;4.10;66.40;;;3.19;54.65;97898.44;5020425;28;20411;-78
2022/03/02 08:55:41;;;;;;;17.90;9.80;;;4.20;66.10;;;3.31;54.20;97889.84;5018948;28;20396;-79
2022/03/02 08:58:08;;;;;;;22.95;10.32;;;4.40;65.90;;;3.44;54.21;97887.34;5021252;28;20491;-79
2022/03/02 09:00:34;;;;;;;16.98;9.63;;;4.50;65.70;;;3.56;53.83;97886.78;5018056;28;20411;-77
2022/03/02 09:03:02;;;;;;;15.60;9.90;;;4.60;65.20;;;3.66;53.69;97882.81;5018210;28;20969;-79
2022/03/02 09:05:29;;;;;;;18.98;9.68;;;4.70;65.00;;;3.77;53.55;97881.44;5022612;28;20429;-81
2022/03/02 09:07:56;;;;;;;16.50;9.82;;;4.80;64.70;;;3.84;53.21;97877.81;5017216;28;20475;-77
2022/03/02 09:10:23;;;;;;;20.98;11.07;;;4.90;64.40;;;3.91;52.78;97883.09;5020173;28;20407;-77
2022/03/02 09:12:50;;;;;;;16.95;10.52;;;5.00;63.90;;;3.98;52.75;97880.50;5019221;28;20922;-76
2022/03/02 09:15:16;;;;;;;17.80;11.10;;;5.00;63.70;;;4.10;52.54;97889.41;5018207;28;20412;-73
2022/03/02 09:17:42;;;;;;;18.45;10.68;;;5.10;63.40;;;4.22;52.15;97891.25;5021212;28;20410;-77
2022/03/02 09:20:09;;;;;;;19.85;11.40;;;5.20;63.10;;;4.36;51.82;97884.22;5028016;28;20404;-77
2022/03/02 09:22:39;;;;;;;19.52;11.60;;;5.40;62.50;;;4.53;51.45;97893.31;5021046;28;20416;-73
2022/03/02 09:25:08;;;;;;;18.45;11.20;;;5.50;61.90;;;4.66;51.05;97885.47;5018462;28;20395;-74
2022/03/02 09:27:35;;;;;;;19.08;11.45;;;5.70;61.50;;;4.84;50.70;97884.06;5018102;28;20943;-76
2022/03/02 09:30:06;;;;;;;19.35;10.93;;;5.80;60.90;;;4.98;50.38;97885.66;5026118;28;20928;-76
2022/03/02 09:32:32;;;;;;;21.67;11.90;;;6.00;60.40;;;5.09;49.90;97885.06;5019985;28;20401;-76
2022/03/02 09:34:59;;;;;;;18.20;9.90;;;6.10;59.70;;;5.20;49.70;97891.50;5019507;28;20415;-77
2022/03/02 09:37:32;;;;;;;17.40;11.00;;;6.20;59.80;;;5.26;49.36;97878.34;5029213;28;20478;-74
2022/03/02 09:40:00;;;;;;;21.30;10.80;;;6.20;59.40;;;5.28;48.13;97875.53;5029015;28;20782;-75
2022/03/02 09:42:30;;;;;;;19.35;11.38;;;6.30;58.00;;;5.28;47.61;97867.66;5028591;28;20885;-74
2022/03/02 09:45:02;;;;;;;20.83;10.57;;;6.20;57.10;;;5.41;47.94;97876.31;5029121;28;20918;-78
2022/03/02 09:47:41;;;;;;;16.88;9.95;;;6.30;57.80;;;5.58;47.85;97873.22;5028659;28;20404;-75
2022/03/02 09:50:10;;;;;;;17.40;9.20;;;6.50;57.90;;;5.79;47.75;97865.06;5029464;28;20879;-79
2022/03/02 09:52:39;;;;;;;14.02;9.35;;;6.70;57.60;;;6.01;47.32;97871.69;5028559;28;20463;-79
2022/03/02 09:55:13;;;;;;;13.77;9.43;;;6.90;57.10;;;6.21;46.74;97877.63;5011249;28;20772;-76
2022/03/02 09:57:43;;;;;;;16.20;9.50;;;7.10;56.70;;;6.34;46.55;97871.50;5019519;28;20426;-76
2022/03/02 10:00:14;;;;;;;16.73;10.30;;;7.30;56.40;;;6.40;46.01;97867.19;5025629;28;20904;-75
2022/03/02 10:02:43;;;;;;;16.83;9.52;;;7.30;55.50;;;6.52;45.85;97876.03;5028835;28;20530;-76
2022/03/02 10:05:11;;;;;;;16.77;9.48;;;7.40;55.60;;;6.71;45.63;97872.44;5024444;28;20414;-81
2022/03/02 10:07:40;;;;;;;15.68;9.32;;;7.60;55.30;;;6.94;45.33;97866.59;5028325;28;20398;-82
2022/03/02 10:10:10;;;;;;;18.42;9.82;;;7.80;55.00;;;7.23;44.75;97867.72;5029056;28;20811;-78
2022/03/02 10:12:36;;;;;;;14.88;9.30;;;8.10;54.70;;;7.50;44.25;97865.66;5025904;28;20481;-78